sensor_id;sensor_type;location;lat;lon;timestamp;pressure;altitude;pressure_sealevel;temperature;humidity
12759;BME280;20944;47.048;15.390;2023-04-01T00:01:05;96296.78;;;8.86;100.00
12759;BME280;20944;47.048;15.390;2023-04-01T00:03:34;96299.94;;;8.94;100.00
12759;BME280;20944;47.048;15.390;2023-04-01T00:06:03;96279.81;;;8.96;100.00
12759;BME280;20944;47.048;15.390;2023-04-01T00:08:31;96291.28;;;8.94;100.00
12759;BME280;20944;47.048;15.390;2023-04-01T00:10:59;96287.81;;;8.93;100.00
12759;BME280;20944;47.048;15.390;2023-04-01T00:13:27;96286.88;;;8.94;100.00
12759;BME280;20944;47.048;15.390;2023-04-01T00:15:55;96282.50;;;8.95;100.00
12759;BME280;20944;47.048;15.390;2023-04-01T00:18:25;96282.63;;;8.91;100.00
12759;BME280;20944;47.048;15.390;2023-04-01T00:20:54;96285.38;;;8.88;100.00
12759;BME280;20944;47.048;15.390;2023-04-01T00:23:22;96272.44;;;8.85;100.00
12759;BME280;20944;47.048;15.390;2023-04-01T00:25:50;96274.22;;;8.85;100.00
12759;BME280;20944;47.048;15.390;2023-04-01T00:28:18;96271.78;;;9.01;100.00
12759;BME280;20944;47.048;15.390;2023-04-01T00:30:47;96267.69;;;8.95;100.00
12759;BME280;20944;47.048;15.390;2023-04-01T00:33:15;96276.81;;;8.85;100.00
12759;BME280;20944;47.048;15.390;2023-04-01T00:35:44;96276.81;;;8.85;100.00
12759;BME280;20944;47.048;15.390;2023-04-01T00:38:13;96271.84;;;8.79;100.00
12759;BME280;20944;47.048;15.390;2023-04-01T00:40:43;96271.09;;;8.77;100.00
12759;BME280;20944;47.048;15.390;2023-04-01T00:43:13;96264.16;;;8.76;100.00
12759;BME280;20944;47.048;15.390;2023-04-01T00:45:41;96259.44;;;8.84;100.00
12759;BME280;20944;47.048;15.390;2023-04-01T00:48:10;96252.66;;;8.80;100.00
12759;BME280;20944;47.048;15.390;2023-04-01T00:50:39;96259.22;;;8.70;100.00
12759;BME280;20944;47.048;15.390;2023-04-01T00:53:08;96250.91;;;8.60;100.00
12759;BME280;20944;47.048;15.390;2023-04-01T00:55:39;96243.06;;;8.60;100.00
12759;BME280;20944;47.048;15.390;2023-04-01T00:58:09;96246.66;;;8.57;100.00
12759;BME280;20944;47.048;15.390;2023-04-01T01:00:41;96242.38;;;8.56;100.00
12759;BME280;20944;47.048;15.390;2023-04-01T01:03:09;96238.09;;;8.54;100.00
12759;BME280;20944;47.048;15.390;2023-04-01T01:05:45;96240.41;;;8.61;100.00
12759;BME280;20944;47.048;15.390;2023-04-01T01:08:20;96235.31;;;8.58;100.00
12759;BME280;20944;47.048;15.390;2023-04-01T01:10:54;96235.56;;;8.52;100.00
12759;BME280;20944;47.048;15.390;2023-04-01T01:13:23;96236.09;;;8.60;100.00
12759;BME280;20944;47.048;15.390;2023-04-01T01:15:53;96230.28;;;8.54;100.00
12759;BME280;20944;47.048;15.390;2023-04-01T01:18:24;96230.81;;;8.62;100.00
12759;BME280;20944;47.048;15.390;2023-04-01T01:21:03;96230.41;;;8.51;100.00
12759;BME280;20944;47.048;15.390;2023-04-01T01:23:39;96229.66;;;8.49;100.00
12759;BME280;20944;47.048;15.390;2023-04-01T01:26:28;96228.47;;;8.56;100.00
12759;BME280;20944;47.048;15.390;2023-04-01T01:29:05;96231.13;;;8.54;100.00
12759;BME280;20944;47.048;15.390;2023-04-01T01:31:36;96234.06;;;8.47;100.00
12759;BME280;20944;47.048;15.390;2023-04-01T01:34:09;96231.44;;;8.47;100.00
12759;BME280;20944;47.048;15.390;2023-04-01T01:36:40;96230.28;;;8.54;100.00
12759;BME280;20944;47.048;15.390;2023-04-01T01:39:11;96222.50;;;8.52;100.00
12759;BME280;20944;47.048;15.390;2023-04-01T01:41:41;96220.91;;;8.50;100.00
12759;BME280;20944;47.048;15.390;2023-04-01T01:44:11;96222.91;;;8.43;100.00
12759;BME280;20944;47.048;15.390;2023-04-01T01:46:40;96215.50;;;8.32;100.00
12759;BME280;20944;47.048;15.390;2023-04-01T01:49:09;96212.28;;;8.26;100.00
12759;BME280;20944;47.048;15.390;2023-04-01T01:51:38;96210.13;;;8.37;100.00
12759;BME280;20944;47.048;15.390;2023-04-01T01:54:11;96206.66;;;8.36;100.00
12759;BME280;20944;47.048;15.390;2023-04-01T01:56:39;96195.63;;;8.30;100.00
12759;BME280;20944;47.048;15.390;2023-04-01T01:59:09;96192.78;;;8.14;100.00
12759;BME280;20944;47.048;15.390;2023-04-01T02:01:39;96191.16;;;8.11;100.00
12759;BME280;20944;47.048;15.390;2023-04-01T02:04:08;96183.13;;;8.16;100.00
12759;BME280;20944;47.048;15.390;2023-04-01T02:06:37;96181.94;;;8.23;100.00
12759;BME280;20944;47.048;15.390;2023-04-01T02:09:08;96186.53;;;8.18;100.00
12759;BME280;20944;47.048;15.390;2023-04-01T02:11:38;96193.81;;;8.10;100.00
12759;BME280;20944;47.048;15.390;2023-04-01T02:14:10;96192.84;;;8.13;100.00
12759;BME280;20944;47.048;15.390;2023-04-01T02:16:45;96194.34;;;8.18;100.00
12759;BME280;20944;47.048;15.390;2023-04-01T02:19:17;96185.78;;;8.15;100.00
12759;BME280;20944;47.048;15.390;2023-04-01T02:21:49;96184.09;;;8.14;100.00
12759;BME280;20944;47.048;15.390;2023-04-01T02:24:19;96190.09;;;8.16;100.00
12759;BME280;20944;47.048;15.390;2023-04-01T02:26:48;96189.44;;;8.10;100.00
12759;BME280;20944;47.048;15.390;2023-04-01T02:29:19;96184.88;;;8.16;100.00
12759;BME280;20944;47.048;15.390;2023-04-01T02:31:49;96194.28;;;8.20;100.00
12759;BME280;20944;47.048;15.390;2023-04-01T02:34:18;96116.50;;;7.67;100.00
12759;BME280;20944;47.048;15.390;2023-04-01T02:36:47;96173.59;;;7.95;100.00
12759;BME280;20944;47.048;15.390;2023-04-01T02:39:16;96211.13;;;8.13;100.00
12759;BME280;20944;47.048;15.390;2023-04-01T02:41:45;96197.22;;;8.12;100.00
12759;BME280;20944;47.048;15.390;2023-04-01T02:44:14;96196.31;;;8.13;100.00
12759;BME280;20944;47.048;15.390;2023-04-01T02:46:43;96181.22;;;7.99;100.00
12759;BME280;20944;47.048;15.390;2023-04-01T02:49:11;96204.50;;;8.04;100.00
12759;BME280;20944;47.048;15.390;2023-04-01T02:51:39;96201.84;;;8.05;100.00
12759;BME280;20944;47.048;15.390;2023-04-01T02:54:07;96141.47;;;7.72;100.00
12759;BME280;20944;47.048;15.390;2023-04-01T02:56:35;96201.00;;;8.05;100.00
12759;BME280;20944;47.048;15.390;2023-04-01T02:59:04;96202.69;;;8.06;100.00
12759;BME280;20944;47.048;15.390;2023-04-01T03:01:32;96205.97;;;8.11;100.00
12759;BME280;20944;47.048;15.390;2023-04-01T03:04:01;96212.91;;;8.10;100.00
12759;BME280;20944;47.048;15.390;2023-04-01T03:06:28;96205.91;;;8.13;100.00
12759;BME280;20944;47.048;15.390;2023-04-01T03:08:56;96202.69;;;8.06;100.00
12759;BME280;20944;47.048;15.390;2023-04-01T03:11:24;96212.28;;;7.83;100.00
12759;BME280;20944;47.048;15.390;2023-04-01T03:13:53;96211.06;;;7.70;100.00
12759;BME280;20944;47.048;15.390;2023-04-01T03:16:22;96219.81;;;7.69;100.00
12759;BME280;20944;47.048;15.390;2023-04-01T03:18:50;96219.63;;;7.74;100.00
12759;BME280;20944;47.048;15.390;2023-04-01T03:21:19;96215.94;;;7.79;100.00
12759;BME280;20944;47.048;15.390;2023-04-01T03:23:48;96222.63;;;7.85;100.00
12759;BME280;20944;47.048;15.390;2023-04-01T03:26:16;96225.06;;;7.90;100.00
12759;BME280;20944;47.048;15.390;2023-04-01T03:28:44;96231.03;;;7.93;100.00
12759;BME280;20944;47.048;15.390;2023-04-01T03:31:12;96240.06;;;8.06;100.00
12759;BME280;20944;47.048;15.390;2023-04-01T03:33:42;96240.06;;;8.06;100.00
12759;BME280;20944;47.048;15.390;2023-04-01T03:36:11;96238.03;;;7.91;100.00
12759;BME280;20944;47.048;15.390;2023-04-01T03:38:40;96241.13;;;7.79;100.00
12759;BME280;20944;47.048;15.390;2023-04-01T03:41:12;96221.72;;;7.64;100.00
12759;BME280;20944;47.048;15.390;2023-04-01T03:43:40;96242.53;;;7.66;100.00
12759;BME280;20944;47.048;15.390;2023-04-01T03:46:08;96248.66;;;7.65;100.00
12759;BME280;20944;47.048;15.390;2023-04-01T03:48:36;96249.63;;;7.62;100.00
12759;BME280;20944;47.048;15.390;2023-04-01T03:51:08;96253.88;;;7.65;100.00
12759;BME280;20944;47.048;15.390;2023-04-01T03:53:36;96251.75;;;7.74;100.00
12759;BME280;20944;47.048;15.390;2023-04-01T03:56:05;96200.59;;;7.50;100.00
12759;BME280;20944;47.048;15.390;2023-04-01T03:58:34;96248.94;;;7.79;100.00
12759;BME280;20944;47.048;15.390;2023-04-01T04:01:03;96250.38;;;7.88;100.00
12759;BME280;20944;47.048;15.390;2023-04-01T04:03:31;96257.13;;;7.92;100.00
12759;BME280;20944;47.048;15.390;2023-04-01T04:05:59;96255.59;;;7.88;100.00
12759;BME280;20944;47.048;15.390;2023-04-01T04:08:29;96259.03;;;7.88;100.00
12759;BME280;20944;47.048;15.390;2023-04-01T04:10:56;96257.94;;;7.94;100.00
12759;BME280;20944;47.048;15.390;2023-04-01T04:13:24;96267.53;;;7.93;100.00
12759;BME280;20944;47.048;15.390;2023-04-01T04:15:52;96269.16;;;7.96;100.00
12759;BME280;20944;47.048;15.390;2023-04-01T04:18:20;96266.63;;;7.94;100.00
12759;BME280;20944;47.048;15.390;2023-04-01T04:20:48;96250.47;;;7.84;100.00
12759;BME280;20944;47.048;15.390;2023-04-01T04:23:18;96263.34;;;7.89;100.00
12759;BME280;20944;47.048;15.390;2023-04-01T04:25:54;96273.59;;;7.94;100.00
12759;BME280;20944;47.048;15.390;2023-04-01T04:28:22;96270.19;;;7.92;100.00
12759;BME280;20944;47.048;15.390;2023-04-01T04:30:50;96271.84;;;7.94;100.00
12759;BME280;20944;47.048;15.390;2023-04-01T04:33:18;96270.56;;;7.82;100.00
12759;BME280;20944;47.048;15.390;2023-04-01T04:35:46;96256.44;;;7.88;100.00
12759;BME280;20944;47.048;15.390;2023-04-01T04:38:14;96258.25;;;7.86;100.00
12759;BME280;20944;47.048;15.390;2023-04-01T04:40:42;96257.34;;;7.87;100.00
12759;BME280;20944;47.048;15.390;2023-04-01T04:43:13;96254.53;;;7.70;100.00
12759;BME280;20944;47.048;15.390;2023-04-01T04:45:41;96246.97;;;7.64;100.00
12759;BME280;20944;47.048;15.390;2023-04-01T04:48:09;96247.88;;;7.63;100.00
12759;BME280;20944;47.048;15.390;2023-04-01T04:50:37;96246.81;;;7.67;100.00
12759;BME280;20944;47.048;15.390;2023-04-01T04:53:05;96243.34;;;7.68;100.00
12759;BME280;20944;47.048;15.390;2023-04-01T04:55:33;96251.69;;;7.76;100.00
12759;BME280;20944;47.048;15.390;2023-04-01T04:58:01;96251.75;;;7.74;100.00
12759;BME280;20944;47.048;15.390;2023-04-01T05:00:30;96247.41;;;7.75;100.00
12759;BME280;20944;47.048;15.390;2023-04-01T05:02:58;96243.03;;;7.75;100.00
12759;BME280;20944;47.048;15.390;2023-04-01T05:05:26;96250.69;;;7.80;100.00
12759;BME280;20944;47.048;15.390;2023-04-01T05:07:54;96253.63;;;7.71;100.00
12759;BME280;20944;47.048;15.390;2023-04-01T05:10:22;96258.84;;;7.71;100.00
12759;BME280;20944;47.048;15.390;2023-04-01T05:12:50;96223.22;;;7.48;100.00
12759;BME280;20944;47.048;15.390;2023-04-01T05:15:18;96265.56;;;7.76;100.00
12759;BME280;20944;47.048;15.390;2023-04-01T05:17:48;96260.19;;;7.81;100.00
12759;BME280;20944;47.048;15.390;2023-04-01T05:20:16;96260.88;;;7.86;100.00
12759;BME280;20944;47.048;15.390;2023-04-01T05:22:44;96267.88;;;7.84;100.00
12759;BME280;20944;47.048;15.390;2023-04-01T05:25:13;96276.75;;;7.80;100.00
12759;BME280;20944;47.048;15.390;2023-04-01T05:27:41;96257.81;;;7.75;100.00
12759;BME280;20944;47.048;15.390;2023-04-01T05:30:09;96261.66;;;7.88;100.00
12759;BME280;20944;47.048;15.390;2023-04-01T05:32:37;96267.63;;;7.90;100.00
12759;BME280;20944;47.048;15.390;2023-04-01T05:35:08;96247.25;;;7.78;100.00
12759;BME280;20944;47.048;15.390;2023-04-01T05:37:36;96264.44;;;7.83;100.00
12759;BME280;20944;47.048;15.390;2023-04-01T05:40:04;96275.47;;;7.90;100.00
12759;BME280;20944;47.048;15.390;2023-04-01T05:42:33;96275.22;;;7.96;100.00
12759;BME280;20944;47.048;15.390;2023-04-01T05:45:04;96274.03;;;8.05;100.00
12759;BME280;20944;47.048;15.390;2023-04-01T05:47:32;96270.94;;;8.17;100.00
12759;BME280;20944;47.048;15.390;2023-04-01T05:50:00;96279.41;;;8.22;100.00
12759;BME280;20944;47.048;15.390;2023-04-01T05:52:29;96280.66;;;8.34;100.00
12759;BME280;20944;47.048;15.390;2023-04-01T05:54:57;96268.13;;;8.44;100.00
12759;BME280;20944;47.048;15.390;2023-04-01T05:57:26;96274.38;;;8.40;100.00
12759;BME280;20944;47.048;15.390;2023-04-01T05:59:54;96276.44;;;8.31;100.00
12759;BME280;20944;47.048;15.390;2023-04-01T06:02:22;96275.84;;;8.25;100.00
12759;BME280;20944;47.048;15.390;2023-04-01T06:04:51;96265.84;;;8.36;100.00
12759;BME280;20944;47.048;15.390;2023-04-01T06:07:21;96268.97;;;8.44;100.00
12759;BME280;20944;47.048;15.390;2023-04-01T06:09:50;96275.72;;;8.50;100.00
12759;BME280;20944;47.048;15.390;2023-04-01T06:12:29;96269.41;;;8.55;100.00
12759;BME280;20944;47.048;15.390;2023-04-01T06:15:04;96273.03;;;8.72;100.00
12759;BME280;20944;47.048;15.390;2023-04-01T06:17:48;96268.31;;;8.80;100.00
12759;BME280;20944;47.048;15.390;2023-04-01T06:20:24;96274.16;;;8.86;100.00
12759;BME280;20944;47.048;15.390;2023-04-01T06:23:07;96264.91;;;8.98;100.00
12759;BME280;20944;47.048;15.390;2023-04-01T06:25:49;96263.88;;;9.02;100.00
12759;BME280;20944;47.048;15.390;2023-04-01T06:31:37;96264.00;;;9.19;100.00
12759;BME280;20944;47.048;15.390;2023-04-01T06:34:29;96268.31;;;9.39;100.00
12759;BME280;20944;47.048;15.390;2023-04-01T06:37:12;96254.53;;;9.55;100.00
12759;BME280;20944;47.048;15.390;2023-04-01T06:43:04;96258.22;;;9.88;100.00
12759;BME280;20944;47.048;15.390;2023-04-01T06:45:41;96277.72;;;10.00;100.00
12759;BME280;20944;47.048;15.390;2023-04-01T06:48:35;96274.81;;;10.06;100.00
12759;BME280;20944;47.048;15.390;2023-04-01T06:51:17;96262.09;;;9.98;100.00
12759;BME280;20944;47.048;15.390;2023-04-01T06:53:52;96284.06;;;10.13;100.00
12759;BME280;20944;47.048;15.390;2023-04-01T06:56:26;96266.19;;;10.04;100.00
12759;BME280;20944;47.048;15.390;2023-04-01T06:58:58;96295.19;;;10.18;100.00
12759;BME280;20944;47.048;15.390;2023-04-01T07:01:34;96275.13;;;10.17;100.00
12759;BME280;20944;47.048;15.390;2023-04-01T07:04:06;96298.00;;;10.33;100.00
12759;BME280;20944;47.048;15.390;2023-04-01T07:06:40;96280.31;;;10.19;100.00
12759;BME280;20944;47.048;15.390;2023-04-01T07:09:13;96302.94;;;10.39;100.00
12759;BME280;20944;47.048;15.390;2023-04-01T07:11:45;96302.41;;;10.49;100.00
12759;BME280;20944;47.048;15.390;2023-04-01T07:14:19;96301.75;;;10.63;100.00
12759;BME280;20944;47.048;15.390;2023-04-01T07:16:50;96274.22;;;10.54;100.00
12759;BME280;20944;47.048;15.390;2023-04-01T07:19:24;96299.59;;;10.89;100.00
12759;BME280;20944;47.048;15.390;2023-04-01T07:21:57;96306.88;;;11.17;100.00
12759;BME280;20944;47.048;15.390;2023-04-01T07:24:31;96308.16;;;11.43;100.00
12759;BME280;20944;47.048;15.390;2023-04-01T07:27:00;96313.13;;;11.65;100.00
12759;BME280;20944;47.048;15.390;2023-04-01T07:29:30;96309.91;;;11.75;100.00
12759;BME280;20944;47.048;15.390;2023-04-01T07:32:15;96309.13;;;11.91;100.00
12759;BME280;20944;47.048;15.390;2023-04-01T07:34:53;96310.91;;;12.06;100.00
12759;BME280;20944;47.048;15.390;2023-04-01T07:37:28;96296.25;;;12.18;100.00
12759;BME280;20944;47.048;15.390;2023-04-01T07:40:07;96310.13;;;12.35;100.00
12759;BME280;20944;47.048;15.390;2023-04-01T07:42:48;96292.66;;;12.50;100.00
12759;BME280;20944;47.048;15.390;2023-04-01T07:45:27;96310.09;;;12.67;100.00
12759;BME280;20944;47.048;15.390;2023-04-01T07:48:14;96314.72;;;12.78;100.00
12759;BME280;20944;47.048;15.390;2023-04-01T07:50:47;96282.53;;;12.88;100.00
12759;BME280;20944;47.048;15.390;2023-04-01T07:53:22;96321.63;;;13.25;100.00
12759;BME280;20944;47.048;15.390;2023-04-01T07:56:00;96314.16;;;13.47;100.00
12759;BME280;20944;47.048;15.390;2023-04-01T07:58:36;96317.28;;;13.54;100.00
12759;BME280;20944;47.048;15.390;2023-04-01T08:01:13;96323.66;;;13.64;100.00
12759;BME280;20944;47.048;15.390;2023-04-01T08:04:02;96231.69;;;13.18;100.00
12759;BME280;20944;47.048;15.390;2023-04-01T08:06:41;96317.47;;;14.20;100.00
12759;BME280;20944;47.048;15.390;2023-04-01T08:09:15;96301.50;;;14.23;100.00
12759;BME280;20944;47.048;15.390;2023-04-01T08:12:00;96318.59;;;14.30;100.00
12759;BME280;20944;47.048;15.390;2023-04-01T08:14:39;96212.78;;;13.83;100.00
12759;BME280;20944;47.048;15.390;2023-04-01T08:17:16;96316.31;;;14.39;100.00
12759;BME280;20944;47.048;15.390;2023-04-01T08:20:07;96310.91;;;14.13;100.00
12759;BME280;20944;47.048;15.390;2023-04-01T08:22:41;96297.97;;;13.96;100.00
12759;BME280;20944;47.048;15.390;2023-04-01T08:25:14;96310.47;;;14.07;100.00
12759;BME280;20944;47.048;15.390;2023-04-01T08:27:46;96312.03;;;14.23;100.00
12759;BME280;20944;47.048;15.390;2023-04-01T08:30:18;96317.88;;;14.28;100.00
12759;BME280;20944;47.048;15.390;2023-04-01T08:32:53;96310.00;;;14.00;100.00
12759;BME280;20944;47.048;15.390;2023-04-01T08:35:29;96315.00;;;13.90;100.00
12759;BME280;20944;47.048;15.390;2023-04-01T08:38:06;96274.28;;;13.82;100.00
12759;BME280;20944;47.048;15.390;2023-04-01T08:40:55;96321.63;;;14.24;100.00
12759;BME280;20944;47.048;15.390;2023-04-01T08:43:42;96325.75;;;14.28;100.00
12759;BME280;20944;47.048;15.390;2023-04-01T08:46:43;96323.09;;;14.43;100.00
12759;BME280;20944;47.048;15.390;2023-04-01T08:49:28;96303.06;;;14.40;100.00
12759;BME280;20944;47.048;15.390;2023-04-01T08:52:12;96299.03;;;14.35;100.00
12759;BME280;20944;47.048;15.390;2023-04-01T08:54:53;96322.25;;;14.42;100.00
12759;BME280;20944;47.048;15.390;2023-04-01T08:57:37;96318.75;;;14.56;100.00
12759;BME280;20944;47.048;15.390;2023-04-01T09:00:15;96322.22;;;14.56;100.00
12759;BME280;20944;47.048;15.390;2023-04-01T09:03:04;96326.75;;;14.54;100.00
12759;BME280;20944;47.048;15.390;2023-04-01T09:08:46;96327.00;;;14.64;100.00
12759;BME280;20944;47.048;15.390;2023-04-01T09:11:28;96329.03;;;14.73;100.00
12759;BME280;20944;47.048;15.390;2023-04-01T09:14:23;96307.34;;;14.82;100.00
12759;BME280;20944;47.048;15.390;2023-04-01T09:17:14;96327.13;;;15.02;100.00
12759;BME280;20944;47.048;15.390;2023-04-01T09:20:06;96332.53;;;15.14;100.00
12759;BME280;20944;47.048;15.390;2023-04-01T09:22:51;96328.50;;;15.21;100.00
12759;BME280;20944;47.048;15.390;2023-04-01T09:25:51;96318.38;;;15.15;100.00
12759;BME280;20944;47.048;15.390;2023-04-01T09:28:27;96335.50;;;15.22;100.00
12759;BME280;20944;47.048;15.390;2023-04-01T09:31:08;96344.88;;;15.26;100.00
12759;BME280;20944;47.048;15.390;2023-04-01T09:34:04;96345.84;;;15.25;100.00
12759;BME280;20944;47.048;15.390;2023-04-01T09:36:43;96340.16;;;15.31;100.00
12759;BME280;20944;47.048;15.390;2023-04-01T09:39:37;96337.41;;;15.45;73.59
12759;BME280;20944;47.048;15.390;2023-04-01T09:42:31;96339.22;;;15.57;72.73
12759;BME280;20944;47.048;15.390;2023-04-01T09:45:09;96337.69;;;15.68;72.40
12759;BME280;20944;47.048;15.390;2023-04-01T09:47:49;96343.69;;;15.70;70.88
12759;BME280;20944;47.048;15.390;2023-04-01T09:50:41;96346.94;;;15.60;68.01
12759;BME280;20944;47.048;15.390;2023-04-01T09:53:24;96356.13;;;15.55;68.37
12759;BME280;20944;47.048;15.390;2023-04-01T09:56:18;96343.97;;;15.39;67.82
12759;BME280;20944;47.048;15.390;2023-04-01T10:02:14;96317.22;;;15.06;58.53
12759;BME280;20944;47.048;15.390;2023-04-01T10:11:20;96347.88;;;15.34;52.37
12759;BME280;20944;47.048;15.390;2023-04-01T10:14:24;96338.66;;;15.27;51.86
12759;BME280;20944;47.048;15.390;2023-04-01T10:26:35;96329.81;;;15.28;50.03
12759;BME280;20944;47.048;15.390;2023-04-01T10:35:47;96334.69;;;15.34;50.67
12759;BME280;20944;47.048;15.390;2023-04-01T10:42:20;96344.69;;;15.29;49.10
12759;BME280;20944;47.048;15.390;2023-04-01T10:45:24;96347.97;;;15.32;50.07
12759;BME280;20944;47.048;15.390;2023-04-01T10:51:47;96331.94;;;15.35;48.50
12759;BME280;20944;47.048;15.390;2023-04-01T10:54:40;96343.13;;;15.52;49.31
12759;BME280;20944;47.048;15.390;2023-04-01T10:57:35;96332.06;;;15.59;48.74
12759;BME280;20944;47.048;15.390;2023-04-01T11:00:53;96336.31;;;15.75;48.95
12759;BME280;20944;47.048;15.390;2023-04-01T11:13:35;96331.19;;;16.23;48.30
12759;BME280;20944;47.048;15.390;2023-04-01T11:22:21;96334.88;;;16.20;47.76
12759;BME280;20944;47.048;15.390;2023-04-01T11:25:17;96341.97;;;16.07;45.89
12759;BME280;20944;47.048;15.390;2023-04-01T11:28:09;96304.59;;;15.36;46.37
12759;BME280;20944;47.048;15.390;2023-04-01T11:31:00;96311.44;;;15.52;48.15
12759;BME280;20944;47.048;15.390;2023-04-01T11:33:34;96247.78;;;15.31;47.15
12759;BME280;20944;47.048;15.390;2023-04-01T11:36:22;96337.25;;;15.99;47.69
12759;BME280;20944;47.048;15.390;2023-04-01T11:39:03;96324.06;;;15.74;46.47
12759;BME280;20944;47.048;15.390;2023-04-01T11:41:40;96316.97;;;15.74;47.89
12759;BME280;20944;47.048;15.390;2023-04-01T11:44:16;96327.53;;;15.87;46.14
12759;BME280;20944;47.048;15.390;2023-04-01T11:47:10;96325.44;;;15.79;46.51
12759;BME280;20944;47.048;15.390;2023-04-01T11:49:52;96331.66;;;15.78;46.55
12759;BME280;20944;47.048;15.390;2023-04-01T11:52:35;96320.97;;;15.93;46.95
12759;BME280;20944;47.048;15.390;2023-04-01T11:55:23;96309.47;;;15.81;45.64
12759;BME280;20944;47.048;15.390;2023-04-01T11:58:25;96316.41;;;16.07;45.39
12759;BME280;20944;47.048;15.390;2023-04-01T12:01:17;96310.06;;;16.10;44.90
12759;BME280;20944;47.048;15.390;2023-04-01T12:04:00;96302.88;;;16.12;45.35
12759;BME280;20944;47.048;15.390;2023-04-01T12:06:35;96319.31;;;16.28;45.15
12759;BME280;20944;47.048;15.390;2023-04-01T12:09:11;96267.78;;;16.10;44.74
12759;BME280;20944;47.048;15.390;2023-04-01T12:11:49;96314.94;;;16.40;44.36
12759;BME280;20944;47.048;15.390;2023-04-01T12:14:25;96316.72;;;16.39;44.18
12759;BME280;20944;47.048;15.390;2023-04-01T12:17:03;96317.97;;;16.23;43.42
12759;BME280;20944;47.048;15.390;2023-04-01T12:19:44;96320.06;;;16.30;43.98
12759;BME280;20944;47.048;15.390;2023-04-01T12:22:29;96295.78;;;16.12;44.42
12759;BME280;20944;47.048;15.390;2023-04-01T12:25:14;96327.88;;;16.32;44.32
12759;BME280;20944;47.048;15.390;2023-04-01T12:27:57;96310.03;;;16.23;43.74
12759;BME280;20944;47.048;15.390;2023-04-01T12:30:43;96327.53;;;16.36;44.80
12759;BME280;20944;47.048;15.390;2023-04-01T12:33:38;96254.19;;;15.90;44.21
12759;BME280;20944;47.048;15.390;2023-04-01T12:36:30;96319.28;;;16.41;43.65
12759;BME280;20944;47.048;15.390;2023-04-01T12:39:15;96320.72;;;16.45;42.49
12759;BME280;20944;47.048;15.390;2023-04-01T12:41:53;96299.41;;;16.35;43.21
12759;BME280;20944;47.048;15.390;2023-04-01T12:44:41;96320.84;;;16.43;43.07
12759;BME280;20944;47.048;15.390;2023-04-01T12:47:45;96307.41;;;16.46;43.56
12759;BME280;20944;47.048;15.390;2023-04-01T12:50:23;96307.41;;;16.46;43.96
12759;BME280;20944;47.048;15.390;2023-04-01T12:53:06;96243.88;;;16.11;43.18
12759;BME280;20944;47.048;15.390;2023-04-01T12:55:39;96297.63;;;16.36;43.24
12759;BME280;20944;47.048;15.390;2023-04-01T12:58:44;96296.47;;;16.27;43.44
12759;BME280;20944;47.048;15.390;2023-04-01T13:01:30;96298.13;;;16.04;41.42
12759;BME280;20944;47.048;15.390;2023-04-01T13:07:23;96289.22;;;16.18;43.31
12759;BME280;20944;47.048;15.390;2023-04-01T13:10:02;96277.47;;;16.22;42.94
12759;BME280;20944;47.048;15.390;2023-04-01T13:12:44;96280.19;;;16.21;43.19
12759;BME280;20944;47.048;15.390;2023-04-01T13:15:28;96253.94;;;16.06;42.92
12759;BME280;20944;47.048;15.390;2023-04-01T13:18:07;96280.84;;;16.24;42.91
12759;BME280;20944;47.048;15.390;2023-04-01T13:20:45;96277.75;;;16.30;42.97
12759;BME280;20944;47.048;15.390;2023-04-01T13:23:30;96198.38;;;15.95;43.45
12759;BME280;20944;47.048;15.390;2023-04-01T13:26:09;96269.09;;;16.52;43.68
12759;BME280;20944;47.048;15.390;2023-04-01T13:28:46;96248.72;;;16.65;43.43
12759;BME280;20944;47.048;15.390;2023-04-01T13:31:27;96282.59;;;17.19;43.15
12759;BME280;20944;47.048;15.390;2023-04-01T13:34:12;96273.03;;;17.52;42.00
12759;BME280;20944;47.048;15.390;2023-04-01T13:36:54;96270.31;;;17.87;41.10
12759;BME280;20944;47.048;15.390;2023-04-01T13:39:40;96270.41;;;18.19;42.13
12759;BME280;20944;47.048;15.390;2023-04-01T13:42:17;96252.66;;;18.42;38.59
12759;BME280;20944;47.048;15.390;2023-04-01T13:44:50;96138.66;;;17.88;36.53
12759;BME280;20944;47.048;15.390;2023-04-01T13:47:43;96238.53;;;18.42;36.82
12759;BME280;20944;47.048;15.390;2023-04-01T13:50:26;96257.28;;;18.61;37.27
12759;BME280;20944;47.048;15.390;2023-04-01T13:53:31;96246.22;;;18.88;37.70
12759;BME280;20944;47.048;15.390;2023-04-01T13:56:16;96246.34;;;18.86;36.69
12759;BME280;20944;47.048;15.390;2023-04-01T13:59:00;96241.63;;;18.90;36.50
12759;BME280;20944;47.048;15.390;2023-04-01T14:01:37;96217.91;;;18.77;35.23
12759;BME280;20944;47.048;15.390;2023-04-01T14:04:46;96226.16;;;18.63;34.81
12759;BME280;20944;47.048;15.390;2023-04-01T14:07:36;96240.50;;;18.72;36.64
12759;BME280;20944;47.048;15.390;2023-04-01T14:10:19;96225.03;;;18.98;35.43
12759;BME280;20944;47.048;15.390;2023-04-01T14:12:58;96218.63;;;19.21;35.94
12759;BME280;20944;47.048;15.390;2023-04-01T14:15:39;96228.59;;;19.29;34.43
12759;BME280;20944;47.048;15.390;2023-04-01T14:18:25;96221.72;;;19.47;34.30
12759;BME280;20944;47.048;15.390;2023-04-01T14:21:07;96132.44;;;19.04;34.83
12759;BME280;20944;47.048;15.390;2023-04-01T14:23:49;96216.41;;;19.47;34.02
12759;BME280;20944;47.048;15.390;2023-04-01T14:26:45;96214.06;;;19.54;33.46
12759;BME280;20944;47.048;15.390;2023-04-01T14:29:24;96215.06;;;19.83;33.44
12759;BME280;20944;47.048;15.390;2023-04-01T14:32:07;96214.25;;;19.92;32.95
12759;BME280;20944;47.048;15.390;2023-04-01T14:34:53;96209.28;;;20.28;32.37
12759;BME280;20944;47.048;15.390;2023-04-01T14:37:48;96205.84;;;20.76;33.03